Portada
METAR-TAF:

METAR-TAF

Aeroports :

Daegu, Corea del Sud

latitud: 35-54N, longitud: 128-39E, altitud: 35 m

Observació

L'informe es va fer fa 57 minuts, a les 17:00 UTC
Vent 9 kt del Nord-Oest
Temperatura 5°C
Humitat 60%
Pressió 1015 hPa
Visibilitat 10 km o més
sense núvols per sota de 1500 mi sense presència de cumulonimbus.

METAR: RKTN 211700Z 31009KT CAVOK 05/M02 Q1015

Hora: 02:57 (17:57 UTC)

Pronòstic

L'informe es va fer fa 57 minuts, a les 17:00 UTC
Pronòstic vàlid del 21 a les 18 UTC al 22 a les 24 UTC
Vent 8 kt del Nord-Oest
Visibilitat 10 km o més
sense núvols per sota de 1500 mi sense presència de cumulonimbus.
Evolucionant progressivament
l' 22 a les 01 UTC al 22 a les 02 UTC
Vent 12 kt del Nord-Oest
Evolucionant progressivament
l' 22 a les 09 UTC al 22 a les 10 UTC
Vent 8 kt del Nord-Oest

TAF: RKTN 211700Z 2118/2224 31008KT CAVOK TN03/2121Z TX12/2206Z BECMG 2201/2202 31012KT BECMG 2209/2210 31008KT

Observacions i pronòstics meteorològics de més de 4000 aeroports (METAR i TAF).

Les estacions disponibles són els punts grocs i vermells al mapa.

Posi el ratolí al punt desitjat per veure el nom de l'estació.

Feu clic per veure les observacions i els pronòstics meteorològics.

Per canviar el mapa: feu clic els botons verds amb una creu de color negre per apropar; al botó verd amb un guió per allunyar la imatge; o en les fletxes verdes per a mapes adjacents.


METAR-TAF: